To NAV CANADA Home Page Login to a new session Search on AWWS site Feedback and Comments Disclaimer Vers la page française équivalente Tips FAQ What's new on the site To the Forecasts and Observations / NOTAM section To "File a Flight Plan" website Publications and other links Update of the User's profile FIC Telephone Numbers My Weather Data Folder Route Weather Data Regional Weather Data Local Weather Data To the Forecasts and Observations / NOTAM section
Request Generated 04/30/2017 at 05:02:32 UTC . Weather information available at that time is displayed.

METAR/TAF

CAPE DORSET/NU    (show WxCam)

METAR CYTE 300400Z AUTO 28018KT 9SM OVC033 M14/M17 A2981 RMK SLP102=
METAR CYTE 300300Z AUTO 27014KT 9SM OVC033 M14/M16 A2981 RMK SLP102=
SPECI CYTE 300212Z AUTO 27015KT 9SM FEW035 M14/M17 A2980 RMK SLP099=
METAR CYTE 300200Z AUTO 27012G17KT 9SM -SN CLR M14/M17 A2979 RMK
SLP097=

TAF CYTE 300038Z 3001/3013 29022G32KT P6SM FEW010 TEMPO 3001/3013 3SM
-SN BLSN BKN010
BECMG 3007/3009 27015KT
RMK FCST BASED ON AUTO OBS. NXT FCST BY 300700Z=
Your time UTC time
Weather data provided by Environment Canada and NAV CANADA